sensor_id;sensor_type;location;lat;lon;timestamp;P1;durP1;ratioP1;P2;durP2;ratioP2
74656;SDS011;63185;45.642;13.764;2024-03-23T00:55:13;7.60;;;4.00;;
74656;SDS011;63185;45.642;13.764;2024-03-23T00:57:39;5.22;;;3.47;;
74656;SDS011;63185;45.642;13.764;2024-03-23T01:00:06;5.97;;;3.53;;
74656;SDS011;63185;45.642;13.764;2024-03-23T01:02:35;7.95;;;3.63;;
74656;SDS011;63185;45.642;13.764;2024-03-23T01:05:00;8.32;;;3.67;;
74656;SDS011;63185;45.642;13.764;2024-03-23T01:07:26;7.80;;;3.70;;
74656;SDS011;63185;45.642;13.764;2024-03-23T01:09:52;7.28;;;3.30;;
74656;SDS011;63185;45.642;13.764;2024-03-23T01:12:18;8.98;;;3.50;;
74656;SDS011;63185;45.642;13.764;2024-03-23T01:14:43;7.15;;;3.65;;
74656;SDS011;63185;45.642;13.764;2024-03-23T01:17:09;8.13;;;3.75;;
74656;SDS011;63185;45.642;13.764;2024-03-23T01:19:35;8.23;;;3.60;;
74656;SDS011;63185;45.642;13.764;2024-03-23T01:22:01;8.18;;;3.70;;
74656;SDS011;63185;45.642;13.764;2024-03-23T01:24:26;6.38;;;3.75;;
74656;SDS011;63185;45.642;13.764;2024-03-23T01:26:52;7.65;;;4.00;;
74656;SDS011;63185;45.642;13.764;2024-03-23T01:29:17;7.28;;;3.95;;
74656;SDS011;63185;45.642;13.764;2024-03-23T01:31:43;6.43;;;3.78;;
74656;SDS011;63185;45.642;13.764;2024-03-23T01:34:09;8.13;;;3.70;;
74656;SDS011;63185;45.642;13.764;2024-03-23T01:36:34;6.93;;;3.90;;
74656;SDS011;63185;45.642;13.764;2024-03-23T01:39:00;7.95;;;3.70;;
74656;SDS011;63185;45.642;13.764;2024-03-23T01:41:25;7.10;;;3.58;;
74656;SDS011;63185;45.642;13.764;2024-03-23T01:43:51;6.60;;;3.80;;
74656;SDS011;63185;45.642;13.764;2024-03-23T01:46:20;7.57;;;3.60;;
74656;SDS011;63185;45.642;13.764;2024-03-23T01:48:45;7.30;;;3.60;;
74656;SDS011;63185;45.642;13.764;2024-03-23T01:51:12;5.63;;;2.92;;
74656;SDS011;63185;45.642;13.764;2024-03-23T01:53:38;5.18;;;2.95;;
74656;SDS011;63185;45.642;13.764;2024-03-23T01:56:04;6.78;;;3.33;;
74656;SDS011;63185;45.642;13.764;2024-03-23T01:58:30;6.43;;;3.17;;
74656;SDS011;63185;45.642;13.764;2024-03-23T02:00:57;6.93;;;3.33;;
74656;SDS011;63185;45.642;13.764;2024-03-23T02:03:23;6.88;;;4.57;;
74656;SDS011;63185;45.642;13.764;2024-03-23T02:05:50;9.52;;;5.40;;
74656;SDS011;63185;45.642;13.764;2024-03-23T02:08:17;8.32;;;4.70;;
74656;SDS011;63185;45.642;13.764;2024-03-23T02:10:44;11.88;;;5.20;;
74656;SDS011;63185;45.642;13.764;2024-03-23T02:13:10;9.63;;;4.97;;
74656;SDS011;63185;45.642;13.764;2024-03-23T02:15:36;9.00;;;4.85;;
74656;SDS011;63185;45.642;13.764;2024-03-23T02:18:02;9.07;;;4.60;;
74656;SDS011;63185;45.642;13.764;2024-03-23T02:20:28;9.13;;;5.50;;
74656;SDS011;63185;45.642;13.764;2024-03-23T02:22:53;11.65;;;5.63;;
74656;SDS011;63185;45.642;13.764;2024-03-23T02:25:19;10.27;;;5.85;;
74656;SDS011;63185;45.642;13.764;2024-03-23T02:27:44;9.15;;;5.18;;
74656;SDS011;63185;45.642;13.764;2024-03-23T02:30:10;8.05;;;4.53;;
74656;SDS011;63185;45.642;13.764;2024-03-23T02:32:36;7.53;;;4.88;;
74656;SDS011;63185;45.642;13.764;2024-03-23T02:35:01;9.38;;;4.80;;
74656;SDS011;63185;45.642;13.764;2024-03-23T02:37:27;11.35;;;4.70;;
74656;SDS011;63185;45.642;13.764;2024-03-23T02:39:53;8.70;;;4.90;;
74656;SDS011;63185;45.642;13.764;2024-03-23T02:42:18;8.07;;;4.28;;
74656;SDS011;63185;45.642;13.764;2024-03-23T02:44:45;6.38;;;4.22;;
74656;SDS011;63185;45.642;13.764;2024-03-23T02:47:10;8.73;;;4.55;;
74656;SDS011;63185;45.642;13.764;2024-03-23T02:49:36;6.90;;;3.90;;
74656;SDS011;63185;45.642;13.764;2024-03-23T02:52:02;8.10;;;3.65;;
74656;SDS011;63185;45.642;13.764;2024-03-23T02:54:28;7.20;;;3.50;;
74656;SDS011;63185;45.642;13.764;2024-03-23T02:56:53;4.82;;;3.35;;
74656;SDS011;63185;45.642;13.764;2024-03-23T02:59:19;5.57;;;3.40;;
74656;SDS011;63185;45.642;13.764;2024-03-23T03:01:44;5.85;;;3.60;;
74656;SDS011;63185;45.642;13.764;2024-03-23T03:04:10;9.35;;;3.30;;
74656;SDS011;63185;45.642;13.764;2024-03-23T03:06:36;6.32;;;3.72;;
74656;SDS011;63185;45.642;13.764;2024-03-23T03:09:01;6.80;;;3.58;;
74656;SDS011;63185;45.642;13.764;2024-03-23T03:11:27;7.57;;;3.97;;
74656;SDS011;63185;45.642;13.764;2024-03-23T03:13:53;8.68;;;4.43;;
74656;SDS011;63185;45.642;13.764;2024-03-23T03:16:19;6.90;;;3.95;;
74656;SDS011;63185;45.642;13.764;2024-03-23T03:18:44;8.13;;;4.30;;
74656;SDS011;63185;45.642;13.764;2024-03-23T03:21:11;8.30;;;4.45;;
74656;SDS011;63185;45.642;13.764;2024-03-23T03:23:37;7.40;;;4.07;;
74656;SDS011;63185;45.642;13.764;2024-03-23T03:26:04;7.68;;;4.38;;
74656;SDS011;63185;45.642;13.764;2024-03-23T03:28:33;7.28;;;4.20;;
74656;SDS011;63185;45.642;13.764;2024-03-23T03:33:26;6.50;;;4.25;;
74656;SDS011;63185;45.642;13.764;2024-03-23T03:35:52;7.85;;;4.65;;
74656;SDS011;63185;45.642;13.764;2024-03-23T03:38:18;8.00;;;4.38;;
74656;SDS011;63185;45.642;13.764;2024-03-23T03:40:44;9.52;;;4.20;;
74656;SDS011;63185;45.642;13.764;2024-03-23T03:43:10;6.38;;;4.13;;
74656;SDS011;63185;45.642;13.764;2024-03-23T03:45:36;6.60;;;4.10;;
74656;SDS011;63185;45.642;13.764;2024-03-23T03:48:02;7.97;;;3.88;;
74656;SDS011;63185;45.642;13.764;2024-03-23T03:50:27;6.32;;;3.47;;
74656;SDS011;63185;45.642;13.764;2024-03-23T03:52:53;6.00;;;3.60;;
74656;SDS011;63185;45.642;13.764;2024-03-23T03:55:19;8.85;;;4.28;;
74656;SDS011;63185;45.642;13.764;2024-03-23T03:57:44;10.88;;;4.57;;
74656;SDS011;63185;45.642;13.764;2024-03-23T04:00:10;9.05;;;4.72;;
74656;SDS011;63185;45.642;13.764;2024-03-23T04:02:39;9.77;;;4.60;;
74656;SDS011;63185;45.642;13.764;2024-03-23T04:05:05;9.23;;;4.20;;
74656;SDS011;63185;45.642;13.764;2024-03-23T04:07:33;6.70;;;4.40;;
74656;SDS011;63185;45.642;13.764;2024-03-23T04:09:59;8.07;;;3.63;;
74656;SDS011;63185;45.642;13.764;2024-03-23T04:12:24;6.47;;;3.92;;
74656;SDS011;63185;45.642;13.764;2024-03-23T04:14:50;4.50;;;3.13;;
74656;SDS011;63185;45.642;13.764;2024-03-23T04:17:16;5.00;;;3.50;;
74656;SDS011;63185;45.642;13.764;2024-03-23T04:19:42;7.00;;;3.50;;
74656;SDS011;63185;45.642;13.764;2024-03-23T04:22:07;5.13;;;3.40;;
74656;SDS011;63185;45.642;13.764;2024-03-23T04:24:33;6.82;;;4.10;;
74656;SDS011;63185;45.642;13.764;2024-03-23T04:26:59;7.97;;;4.00;;
74656;SDS011;63185;45.642;13.764;2024-03-23T04:29:24;8.57;;;3.60;;
74656;SDS011;63185;45.642;13.764;2024-03-23T04:31:51;6.90;;;3.78;;
74656;SDS011;63185;45.642;13.764;2024-03-23T04:34:17;6.95;;;4.00;;
74656;SDS011;63185;45.642;13.764;2024-03-23T04:36:43;7.60;;;4.30;;
74656;SDS011;63185;45.642;13.764;2024-03-23T04:39:09;9.68;;;3.88;;
74656;SDS011;63185;45.642;13.764;2024-03-23T04:41:35;8.80;;;4.13;;
74656;SDS011;63185;45.642;13.764;2024-03-23T04:44:00;8.48;;;4.32;;
74656;SDS011;63185;45.642;13.764;2024-03-23T04:46:26;7.20;;;4.10;;
74656;SDS011;63185;45.642;13.764;2024-03-23T04:48:52;5.80;;;3.58;;
74656;SDS011;63185;45.642;13.764;2024-03-23T04:51:23;5.95;;;3.63;;
74656;SDS011;63185;45.642;13.764;2024-03-23T04:53:49;8.52;;;3.80;;
74656;SDS011;63185;45.642;13.764;2024-03-23T04:56:16;5.30;;;3.50;;
74656;SDS011;63185;45.642;13.764;2024-03-23T04:58:42;7.97;;;3.90;;
74656;SDS011;63185;45.642;13.764;2024-03-23T05:01:09;5.97;;;3.97;;
74656;SDS011;63185;45.642;13.764;2024-03-23T05:03:35;7.68;;;3.60;;
74656;SDS011;63185;45.642;13.764;2024-03-23T05:06:01;6.35;;;3.22;;
74656;SDS011;63185;45.642;13.764;2024-03-23T05:08:26;7.30;;;4.00;;
74656;SDS011;63185;45.642;13.764;2024-03-23T05:10:52;5.50;;;2.95;;
74656;SDS011;63185;45.642;13.764;2024-03-23T05:13:18;4.95;;;2.90;;
74656;SDS011;63185;45.642;13.764;2024-03-23T05:15:43;5.70;;;3.05;;
74656;SDS011;63185;45.642;13.764;2024-03-23T05:18:09;6.88;;;3.20;;
74656;SDS011;63185;45.642;13.764;2024-03-23T05:20:35;4.90;;;2.75;;
74656;SDS011;63185;45.642;13.764;2024-03-23T05:23:01;5.45;;;3.13;;
74656;SDS011;63185;45.642;13.764;2024-03-23T05:25:26;7.50;;;3.28;;
74656;SDS011;63185;45.642;13.764;2024-03-23T05:27:52;6.80;;;2.67;;
74656;SDS011;63185;45.642;13.764;2024-03-23T05:30:18;7.18;;;3.47;;
74656;SDS011;63185;45.642;13.764;2024-03-23T05:32:43;5.40;;;3.25;;
74656;SDS011;63185;45.642;13.764;2024-03-23T05:35:09;6.05;;;3.17;;
74656;SDS011;63185;45.642;13.764;2024-03-23T05:37:35;9.23;;;3.50;;
74656;SDS011;63185;45.642;13.764;2024-03-23T05:40:02;5.70;;;3.30;;
74656;SDS011;63185;45.642;13.764;2024-03-23T05:42:28;8.57;;;3.08;;
74656;SDS011;63185;45.642;13.764;2024-03-23T05:44:54;6.03;;;3.33;;
74656;SDS011;63185;45.642;13.764;2024-03-23T05:47:20;6.35;;;2.80;;
74656;SDS011;63185;45.642;13.764;2024-03-23T05:49:46;5.00;;;2.97;;
74656;SDS011;63185;45.642;13.764;2024-03-23T05:52:12;4.90;;;2.72;;
74656;SDS011;63185;45.642;13.764;2024-03-23T05:54:38;5.97;;;2.92;;
74656;SDS011;63185;45.642;13.764;2024-03-23T05:57:04;5.32;;;3.42;;
74656;SDS011;63185;45.642;13.764;2024-03-23T05:59:32;10.13;;;3.35;;
74656;SDS011;63185;45.642;13.764;2024-03-23T06:01:58;5.85;;;3.35;;
74656;SDS011;63185;45.642;13.764;2024-03-23T06:04:23;8.48;;;3.10;;
74656;SDS011;63185;45.642;13.764;2024-03-23T06:06:50;6.50;;;3.25;;
74656;SDS011;63185;45.642;13.764;2024-03-23T06:09:17;6.07;;;3.55;;
74656;SDS011;63185;45.642;13.764;2024-03-23T06:11:44;7.45;;;3.70;;
74656;SDS011;63185;45.642;13.764;2024-03-23T06:14:10;5.35;;;3.42;;
74656;SDS011;63185;45.642;13.764;2024-03-23T06:16:35;6.05;;;3.80;;
74656;SDS011;63185;45.642;13.764;2024-03-23T06:19:01;5.97;;;3.55;;
74656;SDS011;63185;45.642;13.764;2024-03-23T06:21:29;6.68;;;3.38;;
74656;SDS011;63185;45.642;13.764;2024-03-23T06:23:55;8.02;;;3.78;;
74656;SDS011;63185;45.642;13.764;2024-03-23T06:26:21;6.53;;;3.58;;
74656;SDS011;63185;45.642;13.764;2024-03-23T06:28:47;7.30;;;3.53;;
74656;SDS011;63185;45.642;13.764;2024-03-23T06:31:12;5.78;;;3.58;;
74656;SDS011;63185;45.642;13.764;2024-03-23T06:33:38;6.80;;;3.83;;
74656;SDS011;63185;45.642;13.764;2024-03-23T06:36:06;9.20;;;3.72;;
74656;SDS011;63185;45.642;13.764;2024-03-23T06:38:33;5.47;;;3.10;;
74656;SDS011;63185;45.642;13.764;2024-03-23T06:41:00;5.72;;;3.05;;
74656;SDS011;63185;45.642;13.764;2024-03-23T06:43:28;7.82;;;2.80;;
74656;SDS011;63185;45.642;13.764;2024-03-23T06:45:53;5.00;;;2.70;;
74656;SDS011;63185;45.642;13.764;2024-03-23T06:48:19;6.25;;;3.17;;
74656;SDS011;63185;45.642;13.764;2024-03-23T06:50:46;10.95;;;3.22;;
74656;SDS011;63185;45.642;13.764;2024-03-23T06:53:12;4.32;;;2.60;;
74656;SDS011;63185;45.642;13.764;2024-03-23T06:55:38;5.15;;;2.50;;
74656;SDS011;63185;45.642;13.764;2024-03-23T06:58:04;7.72;;;2.30;;
74656;SDS011;63185;45.642;13.764;2024-03-23T07:00:30;6.75;;;2.55;;
74656;SDS011;63185;45.642;13.764;2024-03-23T07:02:56;4.80;;;2.35;;
74656;SDS011;63185;45.642;13.764;2024-03-23T07:05:21;3.42;;;2.17;;
74656;SDS011;63185;45.642;13.764;2024-03-23T07:07:47;4.82;;;2.17;;
74656;SDS011;63185;45.642;13.764;2024-03-23T07:10:13;7.15;;;2.55;;
74656;SDS011;63185;45.642;13.764;2024-03-23T07:12:38;4.90;;;2.40;;
74656;SDS011;63185;45.642;13.764;2024-03-23T07:15:04;4.28;;;2.28;;
74656;SDS011;63185;45.642;13.764;2024-03-23T07:17:30;5.95;;;2.83;;
74656;SDS011;63185;45.642;13.764;2024-03-23T07:19:57;4.95;;;2.75;;
74656;SDS011;63185;45.642;13.764;2024-03-23T07:22:23;4.50;;;2.42;;
74656;SDS011;63185;45.642;13.764;2024-03-23T07:24:49;5.22;;;2.85;;
74656;SDS011;63185;45.642;13.764;2024-03-23T07:27:14;9.57;;;3.20;;
74656;SDS011;63185;45.642;13.764;2024-03-23T07:29:40;5.13;;;3.10;;
74656;SDS011;63185;45.642;13.764;2024-03-23T07:32:06;8.77;;;2.65;;
74656;SDS011;63185;45.642;13.764;2024-03-23T07:34:31;5.75;;;2.40;;
74656;SDS011;63185;45.642;13.764;2024-03-23T07:36:57;5.80;;;2.40;;
74656;SDS011;63185;45.642;13.764;2024-03-23T07:39:23;5.20;;;2.00;;
74656;SDS011;63185;45.642;13.764;2024-03-23T07:41:49;3.90;;;2.15;;
74656;SDS011;63185;45.642;13.764;2024-03-23T07:44:15;5.63;;;2.17;;
74656;SDS011;63185;45.642;13.764;2024-03-23T07:46:41;6.93;;;2.35;;
74656;SDS011;63185;45.642;13.764;2024-03-23T07:49:06;4.40;;;1.92;;
74656;SDS011;63185;45.642;13.764;2024-03-23T07:51:32;6.03;;;1.90;;
74656;SDS011;63185;45.642;13.764;2024-03-23T07:53:58;3.92;;;1.98;;
74656;SDS011;63185;45.642;13.764;2024-03-23T07:56:25;6.07;;;1.90;;
74656;SDS011;63185;45.642;13.764;2024-03-23T07:58:51;5.13;;;2.10;;
74656;SDS011;63185;45.642;13.764;2024-03-23T08:01:17;5.07;;;2.00;;
74656;SDS011;63185;45.642;13.764;2024-03-23T08:03:45;7.82;;;2.15;;
74656;SDS011;63185;45.642;13.764;2024-03-23T08:06:15;4.82;;;1.90;;
74656;SDS011;63185;45.642;13.764;2024-03-23T08:08:42;3.88;;;1.70;;
74656;SDS011;63185;45.642;13.764;2024-03-23T08:11:10;5.57;;;2.20;;
74656;SDS011;63185;45.642;13.764;2024-03-23T08:13:38;6.93;;;1.88;;
74656;SDS011;63185;45.642;13.764;2024-03-23T08:16:04;4.63;;;2.30;;
74656;SDS011;63185;45.642;13.764;2024-03-23T08:18:30;4.13;;;1.88;;
74656;SDS011;63185;45.642;13.764;2024-03-23T08:23:27;5.25;;;2.10;;
74656;SDS011;63185;45.642;13.764;2024-03-23T08:26:03;6.43;;;2.00;;
74656;SDS011;63185;45.642;13.764;2024-03-23T08:28:30;3.72;;;2.13;;
74656;SDS011;63185;45.642;13.764;2024-03-23T08:30:55;5.57;;;2.17;;
74656;SDS011;63185;45.642;13.764;2024-03-23T08:33:22;4.63;;;1.80;;
74656;SDS011;63185;45.642;13.764;2024-03-23T08:38:23;5.80;;;2.03;;
74656;SDS011;63185;45.642;13.764;2024-03-23T08:40:59;4.45;;;1.90;;
74656;SDS011;63185;45.642;13.764;2024-03-23T08:43:30;4.90;;;1.80;;
74656;SDS011;63185;45.642;13.764;2024-03-23T08:46:06;3.42;;;1.95;;
74656;SDS011;63185;45.642;13.764;2024-03-23T08:48:36;3.85;;;2.20;;
74656;SDS011;63185;45.642;13.764;2024-03-23T08:51:03;3.55;;;2.00;;
74656;SDS011;63185;45.642;13.764;2024-03-23T08:53:30;4.97;;;2.00;;
74656;SDS011;63185;45.642;13.764;2024-03-23T08:55:57;3.58;;;1.95;;
74656;SDS011;63185;45.642;13.764;2024-03-23T08:58:26;8.88;;;2.10;;
74656;SDS011;63185;45.642;13.764;2024-03-23T09:03:18;5.75;;;2.40;;
74656;SDS011;63185;45.642;13.764;2024-03-23T09:05:44;7.00;;;3.35;;
74656;SDS011;63185;45.642;13.764;2024-03-23T09:08:09;5.97;;;3.42;;
74656;SDS011;63185;45.642;13.764;2024-03-23T09:10:38;5.30;;;3.25;;
74656;SDS011;63185;45.642;13.764;2024-03-23T09:13:04;6.63;;;3.60;;
74656;SDS011;63185;45.642;13.764;2024-03-23T09:15:30;7.28;;;3.65;;
74656;SDS011;63185;45.642;13.764;2024-03-23T09:17:56;9.10;;;4.40;;
74656;SDS011;63185;45.642;13.764;2024-03-23T09:20:23;8.52;;;4.90;;
74656;SDS011;63185;45.642;13.764;2024-03-23T09:22:49;6.07;;;3.40;;
74656;SDS011;63185;45.642;13.764;2024-03-23T09:25:15;6.65;;;3.28;;
74656;SDS011;63185;45.642;13.764;2024-03-23T09:27:40;6.28;;;3.50;;
74656;SDS011;63185;45.642;13.764;2024-03-23T09:30:06;7.55;;;3.40;;
74656;SDS011;63185;45.642;13.764;2024-03-23T09:32:32;7.38;;;3.42;;
74656;SDS011;63185;45.642;13.764;2024-03-23T09:34:58;6.53;;;2.60;;
74656;SDS011;63185;45.642;13.764;2024-03-23T09:37:23;5.50;;;3.10;;
74656;SDS011;63185;45.642;13.764;2024-03-23T09:39:49;7.25;;;3.20;;
74656;SDS011;63185;45.642;13.764;2024-03-23T09:42:14;6.45;;;3.28;;
74656;SDS011;63185;45.642;13.764;2024-03-23T09:44:41;6.15;;;2.97;;
74656;SDS011;63185;45.642;13.764;2024-03-23T09:47:07;5.35;;;3.22;;
74656;SDS011;63185;45.642;13.764;2024-03-23T09:49:33;5.03;;;2.90;;
74656;SDS011;63185;45.642;13.764;2024-03-23T09:52:01;7.07;;;2.72;;
74656;SDS011;63185;45.642;13.764;2024-03-23T09:54:28;5.47;;;2.88;;
74656;SDS011;63185;45.642;13.764;2024-03-23T09:56:53;6.03;;;3.30;;
74656;SDS011;63185;45.642;13.764;2024-03-23T09:59:19;9.77;;;3.00;;
74656;SDS011;63185;45.642;13.764;2024-03-23T10:01:44;6.95;;;3.25;;
74656;SDS011;63185;45.642;13.764;2024-03-23T10:04:10;5.20;;;3.20;;
74656;SDS011;63185;45.642;13.764;2024-03-23T10:06:37;8.75;;;3.85;;
74656;SDS011;63185;45.642;13.764;2024-03-23T10:09:03;7.22;;;3.53;;
74656;SDS011;63185;45.642;13.764;2024-03-23T10:11:43;7.30;;;3.33;;
74656;SDS011;63185;45.642;13.764;2024-03-23T10:14:16;6.10;;;2.92;;
74656;SDS011;63185;45.642;13.764;2024-03-23T10:16:59;5.45;;;3.08;;
74656;SDS011;63185;45.642;13.764;2024-03-23T10:19:42;6.63;;;3.03;;
74656;SDS011;63185;45.642;13.764;2024-03-23T10:24:45;5.88;;;3.13;;
74656;SDS011;63185;45.642;13.764;2024-03-23T10:27:29;7.55;;;3.20;;
74656;SDS011;63185;45.642;13.764;2024-03-23T10:29:54;7.47;;;2.92;;
74656;SDS011;63185;45.642;13.764;2024-03-23T10:32:36;5.45;;;3.28;;
74656;SDS011;63185;45.642;13.764;2024-03-23T10:35:15;5.80;;;3.60;;
74656;SDS011;63185;45.642;13.764;2024-03-23T10:37:44;9.10;;;3.92;;
74656;SDS011;63185;45.642;13.764;2024-03-23T10:40:12;8.15;;;4.95;;
74656;SDS011;63185;45.642;13.764;2024-03-23T10:42:38;11.68;;;6.90;;
74656;SDS011;63185;45.642;13.764;2024-03-23T10:45:05;12.10;;;7.38;;
74656;SDS011;63185;45.642;13.764;2024-03-23T10:47:32;12.70;;;8.18;;
74656;SDS011;63185;45.642;13.764;2024-03-23T10:49:59;17.27;;;9.80;;
74656;SDS011;63185;45.642;13.764;2024-03-23T10:52:25;15.98;;;11.00;;
74656;SDS011;63185;45.642;13.764;2024-03-23T10:54:51;17.20;;;10.63;;
74656;SDS011;63185;45.642;13.764;2024-03-23T10:57:21;20.65;;;10.73;;
74656;SDS011;63185;45.642;13.764;2024-03-23T10:59:52;18.98;;;11.15;;
74656;SDS011;63185;45.642;13.764;2024-03-23T11:02:21;20.00;;;12.52;;
74656;SDS011;63185;45.642;13.764;2024-03-23T11:04:47;21.08;;;12.23;;
74656;SDS011;63185;45.642;13.764;2024-03-23T11:07:31;23.65;;;13.57;;
74656;SDS011;63185;45.642;13.764;2024-03-23T11:09:58;22.17;;;13.32;;
74656;SDS011;63185;45.642;13.764;2024-03-23T11:12:25;21.05;;;13.18;;
74656;SDS011;63185;45.642;13.764;2024-03-23T11:15:34;23.30;;;13.63;;
74656;SDS011;63185;45.642;13.764;2024-03-23T11:17:40;22.83;;;13.70;;
74656;SDS011;63185;45.642;13.764;2024-03-23T11:20:06;20.95;;;13.15;;
74656;SDS011;63185;45.642;13.764;2024-03-23T11:22:38;24.50;;;13.65;;
74656;SDS011;63185;45.642;13.764;2024-03-23T11:25:24;22.27;;;13.65;;
74656;SDS011;63185;45.642;13.764;2024-03-23T11:27:51;21.30;;;13.48;;
74656;SDS011;63185;45.642;13.764;2024-03-23T11:32:49;25.42;;;14.57;;
74656;SDS011;63185;45.642;13.764;2024-03-23T11:38:10;23.13;;;14.35;;
74656;SDS011;63185;45.642;13.764;2024-03-23T11:40:37;25.52;;;14.45;;
74656;SDS011;63185;45.642;13.764;2024-03-23T11:43:08;25.38;;;15.05;;
74656;SDS011;63185;45.642;13.764;2024-03-23T11:50:35;28.88;;;16.80;;
74656;SDS011;63185;45.642;13.764;2024-03-23T11:53:06;25.23;;;15.90;;
74656;SDS011;63185;45.642;13.764;2024-03-23T11:58:08;27.95;;;16.77;;
74656;SDS011;63185;45.642;13.764;2024-03-23T12:00:35;27.05;;;16.80;;
74656;SDS011;63185;45.642;13.764;2024-03-23T12:03:01;29.25;;;16.80;;
74656;SDS011;63185;45.642;13.764;2024-03-23T12:05:27;27.73;;;17.15;;
74656;SDS011;63185;45.642;13.764;2024-03-23T12:07:54;26.23;;;16.73;;
74656;SDS011;63185;45.642;13.764;2024-03-23T12:10:20;32.30;;;17.00;;
74656;SDS011;63185;45.642;13.764;2024-03-23T12:12:46;27.25;;;17.38;;
74656;SDS011;63185;45.642;13.764;2024-03-23T12:15:22;28.38;;;17.17;;
74656;SDS011;63185;45.642;13.764;2024-03-23T12:17:48;28.70;;;18.13;;
74656;SDS011;63185;45.642;13.764;2024-03-23T12:20:14;33.33;;;19.98;;
74656;SDS011;63185;45.642;13.764;2024-03-23T12:22:39;33.67;;;19.42;;
74656;SDS011;63185;45.642;13.764;2024-03-23T12:25:05;33.45;;;19.20;;
74656;SDS011;63185;45.642;13.764;2024-03-23T12:27:31;29.05;;;19.00;;
74656;SDS011;63185;45.642;13.764;2024-03-23T12:29:57;31.17;;;18.85;;
74656;SDS011;63185;45.642;13.764;2024-03-23T12:32:23;30.80;;;19.38;;
74656;SDS011;63185;45.642;13.764;2024-03-23T12:34:48;31.88;;;18.60;;
74656;SDS011;63185;45.642;13.764;2024-03-23T12:37:14;32.38;;;17.48;;
74656;SDS011;63185;45.642;13.764;2024-03-23T12:39:42;29.45;;;18.10;;
74656;SDS011;63185;45.642;13.764;2024-03-23T12:42:08;28.77;;;17.38;;
74656;SDS011;63185;45.642;13.764;2024-03-23T12:44:33;27.75;;;16.95;;
74656;SDS011;63185;45.642;13.764;2024-03-23T12:46:59;27.85;;;17.60;;
74656;SDS011;63185;45.642;13.764;2024-03-23T12:49:24;29.98;;;17.83;;
74656;SDS011;63185;45.642;13.764;2024-03-23T12:51:54;34.47;;;17.75;;
74656;SDS011;63185;45.642;13.764;2024-03-23T12:54:21;29.42;;;17.67;;
74656;SDS011;63185;45.642;13.764;2024-03-23T12:56:47;28.45;;;17.17;;
74656;SDS011;63185;45.642;13.764;2024-03-23T12:59:13;28.05;;;17.20;;
74656;SDS011;63185;45.642;13.764;2024-03-23T13:01:39;29.13;;;17.42;;
74656;SDS011;63185;45.642;13.764;2024-03-23T13:04:05;29.15;;;17.27;;
74656;SDS011;63185;45.642;13.764;2024-03-23T13:06:31;25.85;;;16.65;;
74656;SDS011;63185;45.642;13.764;2024-03-23T13:09:03;27.02;;;16.65;;
74656;SDS011;63185;45.642;13.764;2024-03-23T13:11:30;29.60;;;17.33;;
74656;SDS011;63185;45.642;13.764;2024-03-23T13:13:55;29.88;;;18.13;;
74656;SDS011;63185;45.642;13.764;2024-03-23T13:16:21;29.50;;;17.92;;
74656;SDS011;63185;45.642;13.764;2024-03-23T13:18:47;30.70;;;17.55;;
74656;SDS011;63185;45.642;13.764;2024-03-23T13:21:13;34.85;;;18.35;;
74656;SDS011;63185;45.642;13.764;2024-03-23T13:23:38;25.50;;;16.40;;
74656;SDS011;63185;45.642;13.764;2024-03-23T13:26:07;24.98;;;15.98;;
74656;SDS011;63185;45.642;13.764;2024-03-23T13:28:33;25.75;;;16.15;;
74656;SDS011;63185;45.642;13.764;2024-03-23T13:31:00;22.92;;;15.27;;
74656;SDS011;63185;45.642;13.764;2024-03-23T13:33:29;25.42;;;16.05;;
74656;SDS011;63185;45.642;13.764;2024-03-23T13:35:57;28.88;;;16.10;;
74656;SDS011;63185;45.642;13.764;2024-03-23T13:38:23;26.23;;;14.55;;
74656;SDS011;63185;45.642;13.764;2024-03-23T13:40:52;24.58;;;14.32;;
74656;SDS011;63185;45.642;13.764;2024-03-23T13:43:22;26.77;;;13.02;;
74656;SDS011;63185;45.642;13.764;2024-03-23T13:45:55;23.23;;;12.82;;
74656;SDS011;63185;45.642;13.764;2024-03-23T13:48:22;20.58;;;12.82;;
74656;SDS011;63185;45.642;13.764;2024-03-23T13:50:59;23.15;;;13.32;;
74656;SDS011;63185;45.642;13.764;2024-03-23T13:53:28;24.13;;;13.88;;
74656;SDS011;63185;45.642;13.764;2024-03-23T13:55:55;23.45;;;12.48;;
74656;SDS011;63185;45.642;13.764;2024-03-23T13:58:20;24.85;;;12.48;;
74656;SDS011;63185;45.642;13.764;2024-03-23T14:00:46;21.13;;;11.20;;
74656;SDS011;63185;45.642;13.764;2024-03-23T14:03:13;23.15;;;10.80;;
74656;SDS011;63185;45.642;13.764;2024-03-23T14:05:39;21.10;;;11.40;;
74656;SDS011;63185;45.642;13.764;2024-03-23T14:10:32;19.83;;;10.85;;
74656;SDS011;63185;45.642;13.764;2024-03-23T14:12:57;18.02;;;10.35;;
74656;SDS011;63185;45.642;13.764;2024-03-23T14:15:25;19.60;;;10.75;;
74656;SDS011;63185;45.642;13.764;2024-03-23T14:17:51;17.73;;;9.98;;
74656;SDS011;63185;45.642;13.764;2024-03-23T14:20:17;24.05;;;10.88;;
74656;SDS011;63185;45.642;13.764;2024-03-23T14:22:42;19.15;;;9.68;;
74656;SDS011;63185;45.642;13.764;2024-03-23T14:25:09;14.27;;;7.63;;
74656;SDS011;63185;45.642;13.764;2024-03-23T14:27:35;15.25;;;7.80;;
74656;SDS011;63185;45.642;13.764;2024-03-23T14:30:04;14.57;;;8.20;;
74656;SDS011;63185;45.642;13.764;2024-03-23T14:32:30;14.85;;;7.93;;
74656;SDS011;63185;45.642;13.764;2024-03-23T14:35:05;11.85;;;6.78;;
74656;SDS011;63185;45.642;13.764;2024-03-23T14:37:38;14.25;;;7.63;;
74656;SDS011;63185;45.642;13.764;2024-03-23T14:40:04;13.18;;;7.00;;
74656;SDS011;63185;45.642;13.764;2024-03-23T14:42:30;10.90;;;6.60;;
74656;SDS011;63185;45.642;13.764;2024-03-23T14:44:59;14.18;;;5.90;;
74656;SDS011;63185;45.642;13.764;2024-03-23T14:47:24;11.40;;;5.80;;
74656;SDS011;63185;45.642;13.764;2024-03-23T14:49:50;10.15;;;6.10;;
74656;SDS011;63185;45.642;13.764;2024-03-23T14:52:16;10.90;;;6.18;;
74656;SDS011;63185;45.642;13.764;2024-03-23T14:54:43;9.45;;;5.88;;
74656;SDS011;63185;45.642;13.764;2024-03-23T14:57:09;9.93;;;6.30;;
74656;SDS011;63185;45.642;13.764;2024-03-23T14:59:35;11.95;;;5.85;;
74656;SDS011;63185;45.642;13.764;2024-03-23T15:02:03;10.40;;;6.00;;
74656;SDS011;63185;45.642;13.764;2024-03-23T15:04:29;10.60;;;5.60;;
74656;SDS011;63185;45.642;13.764;2024-03-23T15:06:55;9.15;;;4.50;;
74656;SDS011;63185;45.642;13.764;2024-03-23T15:09:20;8.07;;;4.30;;
74656;SDS011;63185;45.642;13.764;2024-03-23T15:11:46;5.95;;;4.03;;
74656;SDS011;63185;45.642;13.764;2024-03-23T15:14:11;7.00;;;4.25;;
74656;SDS011;63185;45.642;13.764;2024-03-23T15:16:37;12.85;;;4.40;;
74656;SDS011;63185;45.642;13.764;2024-03-23T15:19:03;9.07;;;4.47;;
74656;SDS011;63185;45.642;13.764;2024-03-23T15:21:31;10.10;;;4.50;;
74656;SDS011;63185;45.642;13.764;2024-03-23T15:23:57;7.68;;;4.18;;
74656;SDS011;63185;45.642;13.764;2024-03-23T15:26:22;11.13;;;4.60;;
74656;SDS011;63185;45.642;13.764;2024-03-23T15:28:48;7.38;;;4.00;;
74656;SDS011;63185;45.642;13.764;2024-03-23T15:31:23;6.68;;;4.18;;
74656;SDS011;63185;45.642;13.764;2024-03-23T15:33:50;12.63;;;4.55;;
74656;SDS011;63185;45.642;13.764;2024-03-23T15:36:16;8.65;;;4.60;;
74656;SDS011;63185;45.642;13.764;2024-03-23T15:38:42;11.95;;;4.72;;
74656;SDS011;63185;45.642;13.764;2024-03-23T15:41:08;8.07;;;4.53;;
74656;SDS011;63185;45.642;13.764;2024-03-23T15:43:35;10.85;;;4.80;;
74656;SDS011;63185;45.642;13.764;2024-03-23T15:46:01;8.30;;;4.40;;
74656;SDS011;63185;45.642;13.764;2024-03-23T15:48:28;7.55;;;4.75;;